Nathaniel B. Palmer — WBP3210 — position and weather

sailwx.info

Track history (hours):
 
Tides and Currents Weather Stations Pressure Air Temp Water Temp Dewpoint Dewpoint Depression Visibility Wind Speed Wind Dir Waves Ship Positions

Oceanographic research ship Nathaniel B. Palmer (USA)

Contact: Ethan Norris, ethan.norris.contractor@usap.gov

Detailed information on ship capabilities available from University of Delaware's Ocean Information Center and ARCUS's ALIAS (Arctic Logistics Information and Support) project.

Owner: OFFSHORE SERVICE VESSELS, Cut Off, LA. More information available from US FCC via Universal Licensing System and Coast Guard Vessel Documentation Center.

Last reported at 2018-Oct-20 16:00 UTC. Time now 2018-Oct-20 16:47 UTC.
Position S 34°54' W 053°48'.

Type: Other ship. MMSI: 366610000.

Wind from 180 at 5 knots

Barometer 1026.0 mb
Air temperature 15.4 ° C
Water temperature 13.2 ° C

Date/timePositionNaut miles runAvg speedWind from/ knotsBaromVisibWave heightAir tempDewpointWater temp
2018-Oct-20 16:00S 34°54' W 053°48'1211.5 180 / 51026.0 15.4 13.2
2018-Oct-20 15:00S 35°00' W 054°00'10 9.8 160 / 71026.4 15.0 13.2
2018-Oct-20 14:00S 35°00' W 054°12'10 9.8 140 / 71026.3 15.0 13.2
2018-Oct-20 13:00S 35°00' W 054°24'10 9.8 120 / 81026.1 14.9 13.2
2018-Oct-20 12:00S 35°00' W 054°36'10 9.8 120 / 91026.0 14.8 13.2
2018-Oct-20 11:00S 35°00' W 054°48'10 9.8 120 / 101025.9 14.8 13.2
2018-Oct-20 10:00S 35°00' W 055°00'10 9.8 120 / 101025.4 14.6 13.2
2018-Oct-20 09:00S 35°00' W 055°12'10 9.8 120 / 131024.9 14.7 13.2
2018-Oct-20 08:00S 35°00' W 055°24'10 9.8 120 / 141024.6 14.9 13.2
2018-Oct-20 07:00S 35°00' W 055°36'10 9.8 120 / 151024.7 14.9 13.2
2018-Oct-20 06:00S 35°00' W 055°48'10 9.8 110 / 171024.6 15.1 13.2
2018-Oct-20 05:00S 35°00' W 056°00'1211.5 100 / 181025.1 15.3 13.2
2018-Oct-20 04:00S 34°54' W 056°12'0 0.0 110 / 221025.5 15.6 13.2
2018-Oct-20 03:00S 34°54' W 056°12'0 0.0 110 / 91026.0 16.0 13.2
2018-Oct-20 02:00S 34°54' W 056°12'0 0.0 110 / 71026.3 16.1 13.2
2018-Oct-20 00:00S 34°54' W 056°12'0 0.0 110 / 81026.0 16.4 13.2
2018-Oct-19 23:00S 34°54' W 056°12'0 0.0 110 / 91025.5 16.6 13.2
2018-Oct-19 22:00S 34°54' W 056°12'0 0.0 110 / 91025.0 17.0 13.2
2018-Oct-19 21:00S 34°54' W 056°12'0 0.0 110 / 101024.8 17.3 13.2
2018-Oct-19 20:00S 34°54' W 056°12'0 0.0 110 / 101024.8 17.5 13.2
2018-Oct-19 19:00S 34°54' W 056°12'0 0.0 120 / 111025.2 17.7 13.2
2018-Oct-19 18:00S 34°54' W 056°12'0 0.0 120 / 111025.8 18.2 13.2
2018-Oct-19 17:00S 34°54' W 056°12'0 0.0 120 / 91026.4 18.5 13.2
2018-Oct-19 16:00S 34°54' W 056°12'0 0.0 100 / 91026.3 18.1 13.2
2018-Oct-19 15:00S 34°54' W 056°12'0 0.0 140 / 91025.9 18.2 13.2
2018-Oct-19 14:00S 34°54' W 056°12'0 0.0 130 / 91025.4 17.6 13.2
2018-Oct-19 13:00S 34°54' W 056°12'0 0.0 140 / 91025.3 17.0 13.2
2018-Oct-19 12:00S 34°54' W 056°12'0 0.0 140 / 111025.1 17.1 13.2
2018-Oct-19 11:00S 34°54' W 056°12'8 7.8 140 / 151024.8 16.1 13.2
2018-Oct-19 10:00S 35°00' W 056°06'0 0.0 150 / 181024.1 16.3 13.2
2018-Oct-19 09:00S 35°00' W 056°06'5 4.9 150 / 171023.2 15.9 13.2
2018-Oct-19 08:00S 35°00' W 056°00'10 9.8 150 / 181022.7 15.6 13.2
2018-Oct-19 07:00S 35°00' W 055°48'10 9.8 150 / 171022.2 15.7 13.2
2018-Oct-19 06:00S 35°00' W 055°36'10 9.8 160 / 161022.3 16.2 13.2
2018-Oct-19 05:00S 35°00' W 055°24'5 4.9 160 / 151022.5 16.4 13.2
2018-Oct-19 04:00S 35°00' W 055°18'10 9.8 150 / 131022.2 16.7 13.2
2018-Oct-19 03:00S 35°00' W 055°06'8 7.8 140 / 121021.9 17.1 13.2
2018-Oct-19 02:00S 35°06' W 055°00'1313.0 150 / 141021.7 17.1 13.2
2018-Oct-19 01:00S 35°18' W 054°54'8 7.7 150 / 141021.7 17.0 13.2
2018-Oct-19 00:00S 35°24' W 054°48'1313.0 150 / 161020.5 16.8 13.2
2018-Oct-18 23:00S 35°36' W 054°42'8 7.7 160 / 181019.8 16.6 13.2
2018-Oct-18 22:00S 35°42' W 054°36'1312.9 160 / 201018.8 16.3 13.2
2018-Oct-18 21:00S 35°54' W 054°30'1312.9 170 / 191018.3 16.0 13.2
2018-Oct-18 20:00S 36°06' W 054°36'8 7.7 170 / 181017.9 14.4 13.2
2018-Oct-18 19:00S 36°12' W 054°42'8 7.7 180 / 181018.0 13.8 13.2
2018-Oct-18 18:00S 36°18' W 054°48'6 6.0 190 / 181017.9 13.6 13.2
2018-Oct-18 17:00S 36°24' W 054°48'8 7.7 190 / 181017.4 13.7 13.2
2018-Oct-18 16:00S 36°30' W 054°54'1312.9 180 / 171017.1 13.7 13.2
2018-Oct-18 15:00S 36°42' W 055°00'1515.4 170 / 151017.2 13.3 13.2
2018-Oct-18 14:00S 36°54' W 055°12'8 7.7 170 / 141017.1 12.8 13.2
2018-Oct-18 13:00S 37°00' W 055°18'1312.9 190 / 161017.1 12.0 13.2
2018-Oct-18 12:00S 37°12' W 055°24'8 7.7 190 / 141016.7 11.8 12.9
2018-Oct-18 11:00S 37°18' W 055°30'1312.9 190 / 171016.3 11.6 12.5
2018-Oct-18 10:00S 37°30' W 055°36'1312.9 190 / 191015.8 11.7 12.1
2018-Oct-18 09:00S 37°42' W 055°42'8 7.6 190 / 141015.2 12.1 11.8
2018-Oct-18 08:00S 37°48' W 055°48'1312.9 180 / 131014.8 12.0 11.7
2018-Oct-18 07:00S 38°00' W 055°54'8 7.6 170 / 121014.3 11.6 11.6
2018-Oct-18 06:00S 38°06' W 056°00'1515.3 170 / 121014.1 11.3 11.6
2018-Oct-18 05:00S 38°18' W 056°12'8 7.6 180 / 141014.4 11.1 11.6
2018-Oct-18 04:00S 38°24' W 056°18'1312.9 160 / 121014.5 11.0 11.6
2018-Oct-18 03:00S 38°36' W 056°24'1312.9 150 / 91014.2 11.4 11.5
2018-Oct-18 02:00S 38°48' W 056°30'8 7.6 140 / 111014.0 11.5 11.5
2018-Oct-18 01:00S 38°54' W 056°36'1312.9 140 / 121013.8 11.4 11.4
2018-Oct-18 00:00S 39°06' W 056°42'8 7.6 150 / 141013.0 11.6 11.2
2018-Oct-17 23:00S 39°12' W 056°48'1312.9 130 / 121012.3 11.6 11.2
2018-Oct-17 22:00S 39°24' W 056°54'1111.0 140 / 111011.7 11.8 11.1
2018-Oct-17 21:00S 39°30' W 057°06'1312.9 120 / 111011.2 12.1 11.1
2018-Oct-17 20:00S 39°42' W 057°12'1312.9 110 / 131010.7 12.1 10.9
2018-Oct-17 19:00S 39°54' W 057°18'8 7.6 090 / 181010.4 11.5 10.6
2018-Oct-17 18:00S 40°00' W 057°24'1312.8 130 / 141011.4 11.4 10.4
2018-Oct-17 17:00S 40°12' W 057°30'8 7.5 170 / 111012.3 11.9 10.0
2018-Oct-17 16:00S 40°18' W 057°36'1515.1 240 / 111013.0 12.7 9.7
2018-Oct-17 15:00S 40°30' W 057°48'1312.8 250 / 111013.7 11.3 9.4
2018-Oct-17 14:00S 40°42' W 057°54'8 7.5 330 / 111013.2 11.5 9.1
2018-Oct-17 13:00S 40°48' W 058°00'1312.8 010 / 121012.1 11.0 9.0
2018-Oct-17 12:00S 41°00' W 058°06'8 7.5 030 / 111011.6 11.6 8.7
2018-Oct-17 11:00S 41°06' W 058°12'1312.8 030 / 121011.3 11.4 8.6
2018-Oct-17 10:00S 41°18' W 058°18'1515.0 020 / 121010.3 10.9 8.6
2018-Oct-17 09:00S 41°30' W 058°30'7 7.5 1009.6 10.1 8.4
2018-Oct-17 08:00S 41°36' W 058°36'1312.8 020 / 131008.8 10.0 8.5
2018-Oct-17 07:00S 41°48' W 058°42'7 7.5 010 / 141008.7 10.5 8.4
2018-Oct-17 06:00S 41°54' W 058°48'1312.8 340 / 161008.4 10.7 8.5
2018-Oct-17 05:00S 42°06' W 058°54'7 7.5 350 / 151008.1 10.3 8.2
2018-Oct-17 04:00S 42°12' W 059°00'1514.9 360 / 151007.6 11.2 8.2
2018-Oct-17 03:00S 42°24' W 059°12'7 7.5 340 / 171007.3 11.0 8.3
2018-Oct-17 02:00S 42°30' W 059°18'1312.8 330 / 191007.4 10.4 8.3
2018-Oct-17 01:00S 42°42' W 059°24'7 7.4 340 / 151007.0 9.9 8.3
2018-Oct-17 00:00S 42°48' W 059°30'1312.8 330 / 161006.2 9.8 8.6
2018-Oct-16 23:00S 43°00' W 059°36'7 7.4 330 / 151004.8 9.7 8.8
2018-Oct-16 22:00S 43°06' W 059°42'1514.8 310 / 151004.3 10.0 9.0
2018-Oct-16 21:00S 43°18' W 059°54'7 7.4 300 / 121003.6 10.2 8.9
2018-Oct-16 20:00S 43°24' W 060°00'1312.8 300 / 161002.9 10.0 8.7
2018-Oct-16 19:00S 43°36' W 060°06'7 7.4 310 / 171002.2 9.9 8.5
2018-Oct-16 18:00S 43°42' W 060°12'1312.8 310 / 151001.9 10.1 8.6
2018-Oct-16 17:00S 43°54' W 060°18'7 7.4 300 / 91001.7 10.3 8.4
2018-Oct-16 16:00S 44°00' W 060°24'1514.8 290 / 101001.0 10.1 8.4
2018-Oct-16 15:00S 44°12' W 060°36'7 7.4 280 / 101001.3 10.1 8.2
2018-Oct-16 14:00S 44°18' W 060°42'1312.7 320 / 91001.1 9.8 8.0
2018-Oct-16 13:00S 44°30' W 060°48'7 7.4 340 / 91000.7 9.4 8.0
2018-Oct-16 12:00S 44°36' W 060°54'1312.7 360 / 91000.7 9.1 8.1
2018-Oct-16 11:00S 44°48' W 061°00'7 7.4 350 / 61000.5 10.1 8.1
2018-Oct-16 10:00S 44°54' W 061°06'1514.7 010 / 61000.2 10.4 8.0
2018-Oct-16 09:00S 45°06' W 061°18'7 7.3 330 / 51000.2 11.2 8.1
2018-Oct-16 08:00S 45°12' W 061°24'1312.7 330 / 111000.2 10.0 8.1
2018-Oct-16 07:00S 45°24' W 061°30'7 7.3 330 / 141000.1 9.5 8.0
2018-Oct-16 06:00S 45°30' W 061°36'1312.7 320 / 15999.8 10.1 8.1
2018-Oct-16 05:00S 45°42' W 061°42'1010.3 310 / 19999.6 10.3 8.1
2018-Oct-16 04:00S 45°48' W 061°54'1312.7 320 / 20999.2 10.0 8.1
2018-Oct-16 03:00S 46°00' W 062°00'7 7.3 320 / 21999.0 9.8 8.2
2018-Oct-16 02:00S 46°06' W 062°06'1312.7 320 / 20998.6 9.8 8.3
2018-Oct-16 01:00S 46°18' W 062°12'1010.2 310 / 21997.9 10.2 8.1
2018-Oct-16 00:00S 46°24' W 062°24'1312.7 290 / 20996.6 10.6 8.0
2018-Oct-15 23:00S 46°36' W 062°30'1312.7 290 / 21995.5 10.5 8.0
2018-Oct-15 22:00S 46°48' W 062°36'7 7.3 300 / 24994.4 10.2 7.9
2018-Oct-15 21:00S 46°54' W 062°42'1514.5 310 / 28993.2 10.3 7.8
2018-Oct-15 20:00S 47°06' W 062°54'7 7.3 290 / 25992.5 10.4 7.6
2018-Oct-15 19:00S 47°12' W 063°00'1312.7 310 / 30991.6 10.2 7.6
2018-Oct-15 18:00S 47°24' W 063°06'7 7.2 320 / 32991.2 10.1 7.5
2018-Oct-15 17:00S 47°30' W 063°12'7 7.2 310 / 32990.6 9.9 7.4
2018-Oct-15 16:00S 47°36' W 063°18'1414.5 300 / 27990.2 9.5 7.3
2018-Oct-15 15:00S 47°48' W 063°30'7 7.2 310 / 32989.3 9.4 7.2
2018-Oct-15 14:00S 47°54' W 063°36'1312.7 310 / 33988.0 9.5 7.2
2018-Oct-15 13:00S 48°06' W 063°42'7 7.2 310 / 37986.9 10.1 7.1
2018-Oct-15 12:00S 48°12' W 063°48'1312.6 310 / 37986.0 11.0 7.1
2018-Oct-15 11:00S 48°24' W 063°54'1010.0 340 / 28986.6 10.3 7.0
2018-Oct-15 10:00S 48°30' W 064°06'1312.6 340 / 32986.5 9.7 7.0
2018-Oct-15 09:00S 48°42' W 064°12'7 7.2 350 / 26987.2 9.2 6.9
2018-Oct-15 08:00S 48°48' W 064°18'1414.4 010 / 27988.3 8.6 6.9
2018-Oct-15 07:00S 49°00' W 064°30'7 7.2 010 / 30989.4 8.1 6.9
2018-Oct-15 06:00S 49°06' W 064°36'7 7.2 030 / 30990.9 7.6 6.8
2018-Oct-15 05:00S 49°12' W 064°42'1312.6 040 / 30992.9 7.3 6.8
2018-Oct-15 04:00S 49°24' W 064°48'7 7.2 040 / 29994.5 7.1 6.8
2018-Oct-15 03:00S 49°30' W 064°54'7 7.2 040 / 28995.6 6.9 6.8
2018-Oct-15 02:00S 49°36' W 065°00'1312.6 040 / 23997.2 6.7 6.8
2018-Oct-15 01:00S 49°48' W 065°06'10 9.8 040 / 20998.3 6.5 6.8
2018-Oct-15 00:00S 49°54' W 065°18'1312.6 050 / 17998.4 6.3 6.8
2018-Oct-14 23:00S 50°06' W 065°24'7 7.1 060 / 12998.6 6.0 6.8
2018-Oct-14 22:00S 50°12' W 065°30'1414.2 090 / 8998.5 5.9 6.8
2018-Oct-14 21:00S 50°24' W 065°42'7 7.1 090 / 2999.2 6.2 6.7
2018-Oct-14 20:00S 50°30' W 065°48'1312.6 260 / 3999.3 6.8 4.7
2018-Oct-14 19:00S 50°42' W 065°54'10 9.7 230 / 7999.3 7.4 -0.0
2018-Oct-14 18:00S 50°48' W 066°06'1312.6 240 / 10999.2 6.2 -0.0
2018-Oct-14 17:00S 51°00' W 066°12'7 7.1 240 / 11999.0 6.0 -0.0
2018-Oct-14 16:00S 51°06' W 066°18'1414.2 240 / 14998.9 5.9 -0.0
2018-Oct-14 15:00S 51°18' W 066°30'7 7.1 230 / 15998.7 6.5 -0.0
2018-Oct-14 14:00S 51°24' W 066°36'1312.6 230 / 18998.2 6.8 -0.0
2018-Oct-14 13:00S 51°36' W 066°42'10 9.6 240 / 21997.6 6.3 -0.0
2018-Oct-14 12:00S 51°42' W 066°54'1312.6 250 / 23997.0 5.5 -0.0
2018-Oct-14 11:00S 51°54' W 067°00'7 7.0 250 / 22996.5 4.9 -0.0
2018-Oct-14 10:00S 52°00' W 067°06'1414.1 250 / 20995.8 4.7 -0.0
2018-Oct-14 09:00S 52°12' W 067°18'7 7.0 250 / 22995.1 4.6 -0.0
2018-Oct-14 08:00S 52°18' W 067°24'1312.5 250 / 18994.7 4.5 -0.0
2018-Oct-14 07:00S 52°30' W 067°30'9 9.4 250 / 16994.1 4.4 -0.0
2018-Oct-14 06:00S 52°36' W 067°42'1110.9 250 / 20994.0 4.4 -0.0
2018-Oct-14 05:00S 52°36' W 068°00'7 7.3 260 / 17994.0 4.4 -0.0
2018-Oct-14 04:00S 52°36' W 068°12'9 9.4 260 / 14993.9 4.7 -0.0
2018-Oct-14 03:00S 52°30' W 068°24'9 9.5 250 / 18993.7 5.3 -0.0
2018-Oct-14 02:00S 52°24' W 068°36'1111.0 270 / 18994.0 5.7 -0.0
2018-Oct-14 01:00S 52°24' W 068°54'1312.5 260 / 15994.7 5.8 -0.0
2018-Oct-14 00:00S 52°18' W 069°12'1312.5 240 / 14995.2 6.0 -0.0
2018-Oct-13 23:00S 52°24' W 069°30'1616.3 240 / 17995.0 6.0 -0.0
2018-Oct-13 22:00S 52°36' W 069°48'1615.7 240 / 19994.9 6.0 -0.0
2018-Oct-13 21:00S 52°42' W 070°12'7 7.3 260 / 13994.6 6.9 -0.0
2018-Oct-13 20:00S 52°42' W 070°24'1212.0 250 / 15994.6 6.6 -0.0
2018-Oct-13 19:00S 52°54' W 070°24'9 9.4 260 / 23994.2 7.0 -0.0
2018-Oct-13 18:00S 53°00' W 070°36'1414.0 270 / 22994.2 7.3 -0.0
2018-Oct-13 17:00S 52°48' W 070°24'49354934.7 280 / 20988.1 8.2 -0.0
2018-Oct-13 16:00N 00°00' E 000°00'0 0.0 1000.0 -0.0 -0.0
2018-Oct-13 15:00N 00°00' E 000°00'49634963.0 1000.0 -0.0 -0.0
2018-Oct-13 14:00S 53°06' W 070°54'0 0.0 270 / 19994.1 6.8 -0.0
2018-Oct-13 13:00S 53°06' W 070°54'0 0.0 270 / 23994.1 5.7 -0.0
2018-Oct-13 12:00S 53°06' W 070°54'0 0.0 270 / 30993.8 5.8 -0.0
2018-Oct-13 11:00S 53°06' W 070°54'0 0.0 270 / 29994.1 5.2 -0.0
2018-Oct-13 10:00S 53°06' W 070°54'0 0.0 270 / 28994.1 4.8 -0.0
2018-Oct-13 09:00S 53°06' W 070°54'0 0.0 280 / 31993.9 4.5 -0.0
2018-Oct-13 08:00S 53°06' W 070°54'0 0.0 280 / 28994.3 4.1 -0.0
2018-Oct-13 07:00S 53°06' W 070°54'0 0.0 290 / 24994.2 4.2 -0.0
2018-Oct-13 06:00S 53°06' W 070°54'0 0.0 280 / 27994.3 4.5 -0.0
2018-Oct-13 05:00S 53°06' W 070°54'0 0.0 270 / 28994.1 4.6 -0.0
2018-Oct-13 04:00S 53°06' W 070°54'0 0.0 280 / 22994.6 4.7 -0.0
2018-Oct-13 03:00S 53°06' W 070°54'0 0.0 280 / 20994.9 4.4 -0.0
2018-Oct-13 02:00S 53°06' W 070°54'0 0.0 290 / 18995.2 4.3 -0.0
2018-Oct-13 01:00S 53°06' W 070°54'0 0.0 280 / 16995.2 4.1 -0.0
2018-Oct-13 00:00S 53°06' W 070°54'0 0.0 270 / 14995.7 4.4 -0.0
2018-Oct-12 23:00S 53°06' W 070°54'0 0.0 270 / 17995.6 4.4 -0.0
2018-Oct-12 22:00S 53°06' W 070°54'0 0.0 290 / 23994.9 5.3 -0.0
2018-Oct-12 21:00S 53°06' W 070°54'0 0.0 290 / 34993.9 7.1 -0.0
2018-Oct-12 20:00S 53°06' W 070°54'0 0.0 290 / 37994.0 7.7 -0.0
2018-Oct-12 19:00S 53°06' W 070°54'0 0.0 290 / 35994.6 8.7 -0.0
2018-Oct-12 18:00S 53°06' W 070°54'0 0.0 280 / 27995.6 8.9 -0.0
2018-Oct-12 17:00S 53°06' W 070°54'0 0.0 280 / 16997.3 8.7 -0.0
2018-Oct-12 16:00S 53°06' W 070°54'0 0.0 280 / 14998.2 8.6 -0.0
2018-Oct-12 15:00S 53°06' W 070°54'0 0.0 280 / 9999.2 8.1 -0.0
2018-Oct-12 14:00S 53°06' W 070°54'0 0.0 270 / 131000.0 7.4 -0.0
2018-Oct-12 13:00S 53°06' W 070°54'0 0.0 300 / 141000.2 6.8 -0.0
2018-Oct-12 12:00S 53°06' W 070°54'0 0.0 310 / 121000.1 6.9 -0.0
2018-Oct-12 11:00S 53°06' W 070°54'0 0.0 320 / 141000.1 6.3 -0.0
2018-Oct-12 10:00S 53°06' W 070°54'0 0.0 300 / 141000.3 5.9 -0.0
2018-Oct-12 09:00S 53°06' W 070°54'0 0.0 320 / 41000.5 6.3 -0.0
2018-Oct-12 08:00S 53°06' W 070°54'0 0.0 320 / 41001.2 6.7 -0.0
2018-Oct-12 07:00S 53°06' W 070°54'0 0.0 250 / 21001.2 7.0 -0.0
2018-Oct-12 06:00S 53°06' W 070°54'0 0.0 350 / 41001.5 7.4 -0.0
2018-Oct-12 05:00S 53°06' W 070°54'0 0.0 340 / 51001.9 7.5 -0.0
2018-Oct-12 04:00S 53°06' W 070°54'0 0.0 290 / 121002.0 7.7 -0.0
2018-Oct-12 03:00S 53°06' W 070°54'0 0.0 290 / 141002.1 7.9 -0.0
2018-Oct-12 02:00S 53°06' W 070°54'0 0.0 290 / 131002.2 8.0 -0.0
2018-Oct-12 01:00S 53°06' W 070°54'0 0.0 290 / 151002.4 8.1 -0.0
2018-Oct-12 00:00S 53°06' W 070°54'0 0.0 290 / 211002.2 8.7 -0.0
2018-Oct-11 23:00S 53°06' W 070°54'0 0.0 300 / 171002.6 9.3 -0.0
2018-Oct-11 22:00S 53°06' W 070°54'0 0.0 300 / 171003.0 9.9 -0.0
2018-Oct-11 21:00S 53°06' W 070°54'0 0.0 310 / 151003.4 10.4 -0.0
2018-Oct-11 20:00S 53°06' W 070°54'0 0.0 300 / 161003.8 10.7 -0.0
2018-Oct-11 19:00S 53°06' W 070°54'0 0.0 310 / 141004.7 10.7 -0.0
2018-Oct-11 18:00S 53°06' W 070°54'0 0.0 320 / 131005.5 10.1 -0.0
2018-Oct-11 17:00S 53°06' W 070°54'0 0.0 340 / 141006.3 8.7 -0.0
2018-Oct-11 16:00S 53°06' W 070°54'0 0.0 340 / 121007.1 8.0 -0.0
2018-Oct-11 15:00S 53°06' W 070°54'0 0.0 340 / 111007.9 7.2 -0.0
2018-Oct-11 14:00S 53°06' W 070°54'0 0.0 010 / 61008.7 7.0 -0.0
2018-Oct-11 13:00S 53°06' W 070°54'0 0.0 010 / 71009.6 6.5 -0.0
2018-Oct-11 12:00S 53°06' W 070°54'0 0.0 350 / 81010.4 6.4 -0.0
2018-Oct-11 11:00S 53°06' W 070°54'0 0.0 300 / 101010.9 6.3 -0.0
2018-Oct-11 10:00S 53°06' W 070°54'0 0.0 340 / 61011.2 6.0 -0.0
2018-Oct-11 09:00S 53°06' W 070°54'0 0.0 030 / 51011.9 5.3 -0.0
2018-Oct-11 08:00S 53°06' W 070°54'0 0.0 010 / 41012.8 5.6 -0.0
2018-Oct-11 07:00S 53°06' W 070°54'0 0.0 340 / 71013.5 6.4 -0.0
2018-Oct-11 06:00S 53°06' W 070°54'0 0.0 310 / 121014.2 6.8 -0.0
2018-Oct-11 05:00S 53°06' W 070°54'0 0.0 290 / 101014.7 6.6 -0.0
2018-Oct-11 04:00S 53°06' W 070°54'0 0.0 310 / 91015.1 6.8 -0.0
2018-Oct-11 03:00S 53°06' W 070°54'0 0.0 300 / 81015.7 6.9 -0.0
2018-Oct-11 02:00S 53°06' W 070°54'0 0.0 280 / 101016.4 7.1 -0.0
2018-Oct-11 01:00S 53°06' W 070°54'0 0.0 270 / 51016.7 7.4 -0.0
2018-Oct-11 00:00S 53°06' W 070°54'0 0.0 260 / 81016.7 7.5 -0.0
2018-Oct-10 23:00S 53°06' W 070°54'0 0.0 270 / 101017.2 7.9 -0.0
2018-Oct-10 22:00S 53°06' W 070°54'0 0.0 250 / 111017.2 8.5 -0.0
2018-Oct-10 21:00S 53°06' W 070°54'0 0.0 250 / 161016.7 9.0 -0.0
2018-Oct-10 20:00S 53°06' W 070°54'0 0.0 260 / 191016.6 9.2 -0.0
2018-Oct-10 19:00S 53°06' W 070°54'0 0.0 260 / 241016.0 9.1 -0.0
2018-Oct-10 18:00S 53°06' W 070°54'0 0.0 260 / 231016.1 9.4 -0.0
2018-Oct-10 17:00S 53°06' W 070°54'0 0.0 270 / 261016.3 9.4 -0.0
2018-Oct-10 16:00S 53°06' W 070°54'   260 / 221016.2 9.3 -0.0
Track history (hours):
 
Tides and Currents Weather Stations Pressure Air Temp Water Temp Dewpoint Dewpoint Depression Visibility Wind Speed Wind Dir Waves Ship Positions

Oceanographic research ship Nathaniel B. Palmer (USA)

Contact: Ethan Norris, ethan.norris.contractor@usap.gov

Detailed information on ship capabilities available from University of Delaware's Ocean Information Center and ARCUS's ALIAS (Arctic Logistics Information and Support) project.

Owner: OFFSHORE SERVICE VESSELS, Cut Off, LA. More information available from US FCC via Universal Licensing System and Coast Guard Vessel Documentation Center.

Last reported at 2018-Oct-20 16:00 UTC. Time now 2018-Oct-20 16:47 UTC.
Position S 34°54' W 053°48'.

Type: Other ship. MMSI: 366610000.

Wind from 180 at 5 knots

Barometer 1026.0 mb
Air temperature 15.4 ° C
Water temperature 13.2 ° C

Date/timePositionNaut miles runAvg speedWind from/ knotsBaromVisibWave heightAir tempDewpointWater temp
2018-Oct-20 16:00S 34°54' W 053°48'1211.5 180 / 51026.0 15.4 13.2
2018-Oct-20 15:00S 35°00' W 054°00'10 9.8 160 / 71026.4 15.0 13.2
2018-Oct-20 14:00S 35°00' W 054°12'10 9.8 140 / 71026.3 15.0 13.2
2018-Oct-20 13:00S 35°00' W 054°24'10 9.8 120 / 81026.1 14.9 13.2
2018-Oct-20 12:00S 35°00' W 054°36'10 9.8 120 / 91026.0 14.8 13.2
2018-Oct-20 11:00S 35°00' W 054°48'10 9.8 120 / 101025.9 14.8 13.2
2018-Oct-20 10:00S 35°00' W 055°00'10 9.8 120 / 101025.4 14.6 13.2
2018-Oct-20 09:00S 35°00' W 055°12'10 9.8 120 / 131024.9 14.7 13.2
2018-Oct-20 08:00S 35°00' W 055°24'10 9.8 120 / 141024.6 14.9 13.2
2018-Oct-20 07:00S 35°00' W 055°36'10 9.8 120 / 151024.7 14.9 13.2
2018-Oct-20 06:00S 35°00' W 055°48'10 9.8 110 / 171024.6 15.1 13.2
2018-Oct-20 05:00S 35°00' W 056°00'1211.5 100 / 181025.1 15.3 13.2
2018-Oct-20 04:00S 34°54' W 056°12'0 0.0 110 / 221025.5 15.6 13.2
2018-Oct-20 03:00S 34°54' W 056°12'0 0.0 110 / 91026.0 16.0 13.2
2018-Oct-20 02:00S 34°54' W 056°12'0 0.0 110 / 71026.3 16.1 13.2
2018-Oct-20 00:00S 34°54' W 056°12'0 0.0 110 / 81026.0 16.4 13.2
2018-Oct-19 23:00S 34°54' W 056°12'0 0.0 110 / 91025.5 16.6 13.2
2018-Oct-19 22:00S 34°54' W 056°12'0 0.0 110 / 91025.0 17.0 13.2
2018-Oct-19 21:00S 34°54' W 056°12'0 0.0 110 / 101024.8 17.3 13.2
2018-Oct-19 20:00S 34°54' W 056°12'0 0.0 110 / 101024.8 17.5 13.2
2018-Oct-19 19:00S 34°54' W 056°12'0 0.0 120 / 111025.2 17.7 13.2
2018-Oct-19 18:00S 34°54' W 056°12'0 0.0 120 / 111025.8 18.2 13.2
2018-Oct-19 17:00S 34°54' W 056°12'0 0.0 120 / 91026.4 18.5 13.2
2018-Oct-19 16:00S 34°54' W 056°12'0 0.0 100 / 91026.3 18.1 13.2
2018-Oct-19 15:00S 34°54' W 056°12'0 0.0 140 / 91025.9 18.2 13.2
2018-Oct-19 14:00S 34°54' W 056°12'0 0.0 130 / 91025.4 17.6 13.2
2018-Oct-19 13:00S 34°54' W 056°12'0 0.0 140 / 91025.3 17.0 13.2
2018-Oct-19 12:00S 34°54' W 056°12'0 0.0 140 / 111025.1 17.1 13.2
2018-Oct-19 11:00S 34°54' W 056°12'8 7.8 140 / 151024.8 16.1 13.2
2018-Oct-19 10:00S 35°00' W 056°06'0 0.0 150 / 181024.1 16.3 13.2
2018-Oct-19 09:00S 35°00' W 056°06'5 4.9 150 / 171023.2 15.9 13.2
2018-Oct-19 08:00S 35°00' W 056°00'10 9.8 150 / 181022.7 15.6 13.2
2018-Oct-19 07:00S 35°00' W 055°48'10 9.8 150 / 171022.2 15.7 13.2
2018-Oct-19 06:00S 35°00' W 055°36'10 9.8 160 / 161022.3 16.2 13.2
2018-Oct-19 05:00S 35°00' W 055°24'5 4.9 160 / 151022.5 16.4 13.2
2018-Oct-19 04:00S 35°00' W 055°18'10 9.8 150 / 131022.2 16.7 13.2
2018-Oct-19 03:00S 35°00' W 055°06'8 7.8 140 / 121021.9 17.1 13.2
2018-Oct-19 02:00S 35°06' W 055°00'1313.0 150 / 141021.7 17.1 13.2
2018-Oct-19 01:00S 35°18' W 054°54'8 7.7 150 / 141021.7 17.0 13.2
2018-Oct-19 00:00S 35°24' W 054°48'1313.0 150 / 161020.5 16.8 13.2
2018-Oct-18 23:00S 35°36' W 054°42'8 7.7 160 / 181019.8 16.6 13.2
2018-Oct-18 22:00S 35°42' W 054°36'1312.9 160 / 201018.8 16.3 13.2
2018-Oct-18 21:00S 35°54' W 054°30'1312.9 170 / 191018.3 16.0 13.2
2018-Oct-18 20:00S 36°06' W 054°36'8 7.7 170 / 181017.9 14.4 13.2
2018-Oct-18 19:00S 36°12' W 054°42'8 7.7 180 / 181018.0 13.8 13.2
2018-Oct-18 18:00S 36°18' W 054°48'6 6.0 190 / 181017.9 13.6 13.2
2018-Oct-18 17:00S 36°24' W 054°48'8 7.7 190 / 181017.4 13.7 13.2
2018-Oct-18 16:00S 36°30' W 054°54'1312.9 180 / 171017.1 13.7 13.2
2018-Oct-18 15:00S 36°42' W 055°00'1515.4 170 / 151017.2 13.3 13.2
2018-Oct-18 14:00S 36°54' W 055°12'8 7.7 170 / 141017.1 12.8 13.2
2018-Oct-18 13:00S 37°00' W 055°18'1312.9 190 / 161017.1 12.0 13.2
2018-Oct-18 12:00S 37°12' W 055°24'8 7.7 190 / 141016.7 11.8 12.9
2018-Oct-18 11:00S 37°18' W 055°30'1312.9 190 / 171016.3 11.6 12.5
2018-Oct-18 10:00S 37°30' W 055°36'1312.9 190 / 191015.8 11.7 12.1
2018-Oct-18 09:00S 37°42' W 055°42'8 7.6 190 / 141015.2 12.1 11.8
2018-Oct-18 08:00S 37°48' W 055°48'1312.9 180 / 131014.8 12.0 11.7
2018-Oct-18 07:00S 38°00' W 055°54'8 7.6 170 / 121014.3 11.6 11.6
2018-Oct-18 06:00S 38°06' W 056°00'1515.3 170 / 121014.1 11.3 11.6
2018-Oct-18 05:00S 38°18' W 056°12'8 7.6 180 / 141014.4 11.1 11.6
2018-Oct-18 04:00S 38°24' W 056°18'1312.9 160 / 121014.5 11.0 11.6
2018-Oct-18 03:00S 38°36' W 056°24'1312.9 150 / 91014.2 11.4 11.5
2018-Oct-18 02:00S 38°48' W 056°30'8 7.6 140 / 111014.0 11.5 11.5
2018-Oct-18 01:00S 38°54' W 056°36'1312.9 140 / 121013.8 11.4 11.4
2018-Oct-18 00:00S 39°06' W 056°42'8 7.6 150 / 141013.0 11.6 11.2
2018-Oct-17 23:00S 39°12' W 056°48'1312.9 130 / 121012.3 11.6 11.2
2018-Oct-17 22:00S 39°24' W 056°54'1111.0 140 / 111011.7 11.8 11.1
2018-Oct-17 21:00S 39°30' W 057°06'1312.9 120 / 111011.2 12.1 11.1
2018-Oct-17 20:00S 39°42' W 057°12'1312.9 110 / 131010.7 12.1 10.9
2018-Oct-17 19:00S 39°54' W 057°18'8 7.6 090 / 181010.4 11.5 10.6
2018-Oct-17 18:00S 40°00' W 057°24'1312.8 130 / 141011.4 11.4 10.4
2018-Oct-17 17:00S 40°12' W 057°30'8 7.5 170 / 111012.3 11.9 10.0
2018-Oct-17 16:00S 40°18' W 057°36'1515.1 240 / 111013.0 12.7 9.7
2018-Oct-17 15:00S 40°30' W 057°48'1312.8 250 / 111013.7 11.3 9.4
2018-Oct-17 14:00S 40°42' W 057°54'8 7.5 330 / 111013.2 11.5 9.1
2018-Oct-17 13:00S 40°48' W 058°00'1312.8 010 / 121012.1 11.0 9.0
2018-Oct-17 12:00S 41°00' W 058°06'8 7.5 030 / 111011.6 11.6 8.7
2018-Oct-17 11:00S 41°06' W 058°12'1312.8 030 / 121011.3 11.4 8.6
2018-Oct-17 10:00S 41°18' W 058°18'1515.0 020 / 121010.3 10.9 8.6
2018-Oct-17 09:00S 41°30' W 058°30'7 7.5 1009.6 10.1 8.4
2018-Oct-17 08:00S 41°36' W 058°36'1312.8 020 / 131008.8 10.0 8.5
2018-Oct-17 07:00S 41°48' W 058°42'7 7.5 010 / 141008.7 10.5 8.4
2018-Oct-17 06:00S 41°54' W 058°48'1312.8 340 / 161008.4 10.7 8.5
2018-Oct-17 05:00S 42°06' W 058°54'7 7.5 350 / 151008.1 10.3 8.2
2018-Oct-17 04:00S 42°12' W 059°00'1514.9 360 / 151007.6 11.2 8.2
2018-Oct-17 03:00S 42°24' W 059°12'7 7.5 340 / 171007.3 11.0 8.3
2018-Oct-17 02:00S 42°30' W 059°18'1312.8 330 / 191007.4 10.4 8.3
2018-Oct-17 01:00S 42°42' W 059°24'7 7.4 340 / 151007.0 9.9 8.3
2018-Oct-17 00:00S 42°48' W 059°30'1312.8 330 / 161006.2 9.8 8.6
2018-Oct-16 23:00S 43°00' W 059°36'7 7.4 330 / 151004.8 9.7 8.8
2018-Oct-16 22:00S 43°06' W 059°42'1514.8 310 / 151004.3 10.0 9.0
2018-Oct-16 21:00S 43°18' W 059°54'7 7.4 300 / 121003.6 10.2 8.9
2018-Oct-16 20:00S 43°24' W 060°00'1312.8 300 / 161002.9 10.0 8.7
2018-Oct-16 19:00S 43°36' W 060°06'7 7.4 310 / 171002.2 9.9 8.5
2018-Oct-16 18:00S 43°42' W 060°12'1312.8 310 / 151001.9 10.1 8.6
2018-Oct-16 17:00S 43°54' W 060°18'7 7.4 300 / 91001.7 10.3 8.4
2018-Oct-16 16:00S 44°00' W 060°24'1514.8 290 / 101001.0 10.1 8.4
2018-Oct-16 15:00S 44°12' W 060°36'7 7.4 280 / 101001.3 10.1 8.2
2018-Oct-16 14:00S 44°18' W 060°42'1312.7 320 / 91001.1 9.8 8.0
2018-Oct-16 13:00S 44°30' W 060°48'7 7.4 340 / 91000.7 9.4 8.0
2018-Oct-16 12:00S 44°36' W 060°54'1312.7 360 / 91000.7 9.1 8.1
2018-Oct-16 11:00S 44°48' W 061°00'7 7.4 350 / 61000.5 10.1 8.1
2018-Oct-16 10:00S 44°54' W 061°06'1514.7 010 / 61000.2 10.4 8.0
2018-Oct-16 09:00S 45°06' W 061°18'7 7.3 330 / 51000.2 11.2 8.1
2018-Oct-16 08:00S 45°12' W 061°24'1312.7 330 / 111000.2 10.0 8.1
2018-Oct-16 07:00S 45°24' W 061°30'7 7.3 330 / 141000.1 9.5 8.0
2018-Oct-16 06:00S 45°30' W 061°36'1312.7 320 / 15999.8 10.1 8.1
2018-Oct-16 05:00S 45°42' W 061°42'1010.3 310 / 19999.6 10.3 8.1
2018-Oct-16 04:00S 45°48' W 061°54'1312.7 320 / 20999.2 10.0 8.1
2018-Oct-16 03:00S 46°00' W 062°00'7 7.3 320 / 21999.0 9.8 8.2
2018-Oct-16 02:00S 46°06' W 062°06'1312.7 320 / 20998.6 9.8 8.3
2018-Oct-16 01:00S 46°18' W 062°12'1010.2 310 / 21997.9 10.2 8.1
2018-Oct-16 00:00S 46°24' W 062°24'1312.7 290 / 20996.6 10.6 8.0
2018-Oct-15 23:00S 46°36' W 062°30'1312.7 290 / 21995.5 10.5 8.0
2018-Oct-15 22:00S 46°48' W 062°36'7 7.3 300 / 24994.4 10.2 7.9
2018-Oct-15 21:00S 46°54' W 062°42'1514.5 310 / 28993.2 10.3 7.8
2018-Oct-15 20:00S 47°06' W 062°54'7 7.3 290 / 25992.5 10.4 7.6
2018-Oct-15 19:00S 47°12' W 063°00'1312.7 310 / 30991.6 10.2 7.6
2018-Oct-15 18:00S 47°24' W 063°06'7 7.2 320 / 32991.2 10.1 7.5
2018-Oct-15 17:00S 47°30' W 063°12'7 7.2 310 / 32990.6 9.9 7.4
2018-Oct-15 16:00S 47°36' W 063°18'1414.5 300 / 27990.2 9.5 7.3
2018-Oct-15 15:00S 47°48' W 063°30'7 7.2 310 / 32989.3 9.4 7.2
2018-Oct-15 14:00S 47°54' W 063°36'1312.7 310 / 33988.0 9.5 7.2
2018-Oct-15 13:00S 48°06' W 063°42'7 7.2 310 / 37986.9 10.1 7.1
2018-Oct-15 12:00S 48°12' W 063°48'1312.6 310 / 37986.0 11.0 7.1
2018-Oct-15 11:00S 48°24' W 063°54'1010.0 340 / 28986.6 10.3 7.0
2018-Oct-15 10:00S 48°30' W 064°06'1312.6 340 / 32986.5 9.7 7.0
2018-Oct-15 09:00S 48°42' W 064°12'7 7.2 350 / 26987.2 9.2 6.9
2018-Oct-15 08:00S 48°48' W 064°18'1414.4 010 / 27988.3 8.6 6.9
2018-Oct-15 07:00S 49°00' W 064°30'7 7.2 010 / 30989.4 8.1 6.9
2018-Oct-15 06:00S 49°06' W 064°36'7 7.2 030 / 30990.9 7.6 6.8
2018-Oct-15 05:00S 49°12' W 064°42'1312.6 040 / 30992.9 7.3 6.8
2018-Oct-15 04:00S 49°24' W 064°48'7 7.2 040 / 29994.5 7.1 6.8
2018-Oct-15 03:00S 49°30' W 064°54'7 7.2 040 / 28995.6 6.9 6.8
2018-Oct-15 02:00S 49°36' W 065°00'1312.6 040 / 23997.2 6.7 6.8
2018-Oct-15 01:00S 49°48' W 065°06'10 9.8 040 / 20998.3 6.5 6.8
2018-Oct-15 00:00S 49°54' W 065°18'1312.6 050 / 17998.4 6.3 6.8
2018-Oct-14 23:00S 50°06' W 065°24'7 7.1 060 / 12998.6 6.0 6.8
2018-Oct-14 22:00S 50°12' W 065°30'1414.2 090 / 8998.5 5.9 6.8
2018-Oct-14 21:00S 50°24' W 065°42'7 7.1 090 / 2999.2 6.2 6.7
2018-Oct-14 20:00S 50°30' W 065°48'1312.6 260 / 3999.3 6.8 4.7
2018-Oct-14 19:00S 50°42' W 065°54'10 9.7 230 / 7999.3 7.4 -0.0
2018-Oct-14 18:00S 50°48' W 066°06'1312.6 240 / 10999.2 6.2 -0.0
2018-Oct-14 17:00S 51°00' W 066°12'7 7.1 240 / 11999.0 6.0 -0.0
2018-Oct-14 16:00S 51°06' W 066°18'1414.2 240 / 14998.9 5.9 -0.0
2018-Oct-14 15:00S 51°18' W 066°30'7 7.1 230 / 15998.7 6.5 -0.0
2018-Oct-14 14:00S 51°24' W 066°36'1312.6 230 / 18998.2 6.8 -0.0
2018-Oct-14 13:00S 51°36' W 066°42'10 9.6 240 / 21997.6 6.3 -0.0
2018-Oct-14 12:00S 51°42' W 066°54'1312.6 250 / 23997.0 5.5 -0.0
2018-Oct-14 11:00S 51°54' W 067°00'7 7.0 250 / 22996.5 4.9 -0.0
2018-Oct-14 10:00S 52°00' W 067°06'1414.1 250 / 20995.8 4.7 -0.0
2018-Oct-14 09:00S 52°12' W 067°18'7 7.0 250 / 22995.1 4.6 -0.0
2018-Oct-14 08:00S 52°18' W 067°24'1312.5 250 / 18994.7 4.5 -0.0
2018-Oct-14 07:00S 52°30' W 067°30'9 9.4 250 / 16994.1 4.4 -0.0
2018-Oct-14 06:00S 52°36' W 067°42'1110.9 250 / 20994.0 4.4 -0.0
2018-Oct-14 05:00S 52°36' W 068°00'7 7.3 260 / 17994.0 4.4 -0.0
2018-Oct-14 04:00S 52°36' W 068°12'9 9.4 260 / 14993.9 4.7 -0.0
2018-Oct-14 03:00S 52°30' W 068°24'9 9.5 250 / 18993.7 5.3 -0.0
2018-Oct-14 02:00S 52°24' W 068°36'1111.0 270 / 18994.0 5.7 -0.0
2018-Oct-14 01:00S 52°24' W 068°54'1312.5 260 / 15994.7 5.8 -0.0
2018-Oct-14 00:00S 52°18' W 069°12'1312.5 240 / 14995.2 6.0 -0.0
2018-Oct-13 23:00S 52°24' W 069°30'1616.3 240 / 17995.0 6.0 -0.0
2018-Oct-13 22:00S 52°36' W 069°48'1615.7 240 / 19994.9 6.0 -0.0
2018-Oct-13 21:00S 52°42' W 070°12'7 7.3 260 / 13994.6 6.9 -0.0
2018-Oct-13 20:00S 52°42' W 070°24'1212.0 250 / 15994.6 6.6 -0.0
2018-Oct-13 19:00S 52°54' W 070°24'9 9.4 260 / 23994.2 7.0 -0.0
2018-Oct-13 18:00S 53°00' W 070°36'1414.0 270 / 22994.2 7.3 -0.0
2018-Oct-13 17:00S 52°48' W 070°24'49354934.7 280 / 20988.1 8.2 -0.0
2018-Oct-13 16:00N 00°00' E 000°00'0 0.0 1000.0 -0.0 -0.0
2018-Oct-13 15:00N 00°00' E 000°00'49634963.0 1000.0 -0.0 -0.0
2018-Oct-13 14:00S 53°06' W 070°54'0 0.0 270 / 19994.1 6.8 -0.0
2018-Oct-13 13:00S 53°06' W 070°54'0 0.0 270 / 23994.1 5.7 -0.0
2018-Oct-13 12:00S 53°06' W 070°54'0 0.0 270 / 30993.8 5.8 -0.0
2018-Oct-13 11:00S 53°06' W 070°54'0 0.0 270 / 29994.1 5.2 -0.0
2018-Oct-13 10:00S 53°06' W 070°54'0 0.0 270 / 28994.1 4.8 -0.0
2018-Oct-13 09:00S 53°06' W 070°54'0 0.0 280 / 31993.9 4.5 -0.0
2018-Oct-13 08:00S 53°06' W 070°54'0 0.0 280 / 28994.3 4.1 -0.0
2018-Oct-13 07:00S 53°06' W 070°54'0 0.0 290 / 24994.2 4.2 -0.0
2018-Oct-13 06:00S 53°06' W 070°54'0 0.0 280 / 27994.3 4.5 -0.0
2018-Oct-13 05:00S 53°06' W 070°54'0 0.0 270 / 28994.1 4.6 -0.0
2018-Oct-13 04:00S 53°06' W 070°54'0 0.0 280 / 22994.6 4.7 -0.0
2018-Oct-13 03:00S 53°06' W 070°54'0 0.0 280 / 20994.9 4.4 -0.0
2018-Oct-13 02:00S 53°06' W 070°54'0 0.0 290 / 18995.2 4.3 -0.0
2018-Oct-13 01:00S 53°06' W 070°54'0 0.0 280 / 16995.2 4.1 -0.0
2018-Oct-13 00:00S 53°06' W 070°54'0 0.0 270 / 14995.7 4.4 -0.0
2018-Oct-12 23:00S 53°06' W 070°54'0 0.0 270 / 17995.6 4.4 -0.0
2018-Oct-12 22:00S 53°06' W 070°54'0 0.0 290 / 23994.9 5.3 -0.0
2018-Oct-12 21:00S 53°06' W 070°54'0 0.0 290 / 34993.9 7.1 -0.0
2018-Oct-12 20:00S 53°06' W 070°54'0 0.0 290 / 37994.0 7.7 -0.0
2018-Oct-12 19:00S 53°06' W 070°54'0 0.0 290 / 35994.6 8.7 -0.0
2018-Oct-12 18:00S 53°06' W 070°54'0 0.0 280 / 27995.6 8.9 -0.0
2018-Oct-12 17:00S 53°06' W 070°54'0 0.0 280 / 16997.3 8.7 -0.0
2018-Oct-12 16:00S 53°06' W 070°54'0 0.0 280 / 14998.2 8.6 -0.0
2018-Oct-12 15:00S 53°06' W 070°54'0 0.0 280 / 9999.2 8.1 -0.0
2018-Oct-12 14:00S 53°06' W 070°54'0 0.0 270 / 131000.0 7.4 -0.0
2018-Oct-12 13:00S 53°06' W 070°54'0 0.0 300 / 141000.2 6.8 -0.0
2018-Oct-12 12:00S 53°06' W 070°54'0 0.0 310 / 121000.1 6.9 -0.0
2018-Oct-12 11:00S 53°06' W 070°54'0 0.0 320 / 141000.1 6.3 -0.0
2018-Oct-12 10:00S 53°06' W 070°54'0 0.0 300 / 141000.3 5.9 -0.0
2018-Oct-12 09:00S 53°06' W 070°54'0 0.0 320 / 41000.5 6.3 -0.0
2018-Oct-12 08:00S 53°06' W 070°54'0 0.0 320 / 41001.2 6.7 -0.0
2018-Oct-12 07:00S 53°06' W 070°54'0 0.0 250 / 21001.2 7.0 -0.0
2018-Oct-12 06:00S 53°06' W 070°54'0 0.0 350 / 41001.5 7.4 -0.0
2018-Oct-12 05:00S 53°06' W 070°54'0 0.0 340 / 51001.9 7.5 -0.0
2018-Oct-12 04:00S 53°06' W 070°54'0 0.0 290 / 121002.0 7.7 -0.0
2018-Oct-12 03:00S 53°06' W 070°54'0 0.0 290 / 141002.1 7.9 -0.0
2018-Oct-12 02:00S 53°06' W 070°54'0 0.0 290 / 131002.2 8.0 -0.0
2018-Oct-12 01:00S 53°06' W 070°54'0 0.0 290 / 151002.4 8.1 -0.0
2018-Oct-12 00:00S 53°06' W 070°54'0 0.0 290 / 211002.2 8.7 -0.0
2018-Oct-11 23:00S 53°06' W 070°54'0 0.0 300 / 171002.6 9.3 -0.0
2018-Oct-11 22:00S 53°06' W 070°54'0 0.0 300 / 171003.0 9.9 -0.0
2018-Oct-11 21:00S 53°06' W 070°54'0 0.0 310 / 151003.4 10.4 -0.0
2018-Oct-11 20:00S 53°06' W 070°54'0 0.0 300 / 161003.8 10.7 -0.0
2018-Oct-11 19:00S 53°06' W 070°54'0 0.0 310 / 141004.7 10.7 -0.0
2018-Oct-11 18:00S 53°06' W 070°54'0 0.0 320 / 131005.5 10.1 -0.0
2018-Oct-11 17:00S 53°06' W 070°54'0 0.0 340 / 141006.3 8.7 -0.0
2018-Oct-11 16:00S 53°06' W 070°54'0 0.0 340 / 121007.1 8.0 -0.0
2018-Oct-11 15:00S 53°06' W 070°54'0 0.0 340 / 111007.9 7.2 -0.0
2018-Oct-11 14:00S 53°06' W 070°54'0 0.0 010 / 61008.7 7.0 -0.0
2018-Oct-11 13:00S 53°06' W 070°54'0 0.0 010 / 71009.6 6.5 -0.0
2018-Oct-11 12:00S 53°06' W 070°54'0 0.0 350 / 81010.4 6.4 -0.0
2018-Oct-11 11:00S 53°06' W 070°54'0 0.0 300 / 101010.9 6.3 -0.0
2018-Oct-11 10:00S 53°06' W 070°54'0 0.0 340 / 61011.2 6.0 -0.0
2018-Oct-11 09:00S 53°06' W 070°54'0 0.0 030 / 51011.9 5.3 -0.0
2018-Oct-11 08:00S 53°06' W 070°54'0 0.0 010 / 41012.8 5.6 -0.0
2018-Oct-11 07:00S 53°06' W 070°54'0 0.0 340 / 71013.5 6.4 -0.0
2018-Oct-11 06:00S 53°06' W 070°54'0 0.0 310 / 121014.2 6.8 -0.0
2018-Oct-11 05:00S 53°06' W 070°54'0 0.0 290 / 101014.7 6.6 -0.0
2018-Oct-11 04:00S 53°06' W 070°54'0 0.0 310 / 91015.1 6.8 -0.0
2018-Oct-11 03:00S 53°06' W 070°54'0 0.0 300 / 81015.7 6.9 -0.0
2018-Oct-11 02:00S 53°06' W 070°54'0 0.0 280 / 101016.4 7.1 -0.0
2018-Oct-11 01:00S 53°06' W 070°54'0 0.0 270 / 51016.7 7.4 -0.0
2018-Oct-11 00:00S 53°06' W 070°54'0 0.0 260 / 81016.7 7.5 -0.0
2018-Oct-10 23:00S 53°06' W 070°54'0 0.0 270 / 101017.2 7.9 -0.0
2018-Oct-10 22:00S 53°06' W 070°54'0 0.0 250 / 111017.2 8.5 -0.0
2018-Oct-10 21:00S 53°06' W 070°54'0 0.0 250 / 161016.7 9.0 -0.0
2018-Oct-10 20:00S 53°06' W 070°54'0 0.0 260 / 191016.6 9.2 -0.0
2018-Oct-10 19:00S 53°06' W 070°54'0 0.0 260 / 241016.0 9.1 -0.0
2018-Oct-10 18:00S 53°06' W 070°54'0 0.0 260 / 231016.1 9.4 -0.0
2018-Oct-10 17:00S 53°06' W 070°54'0 0.0 270 / 261016.3 9.4 -0.0
2018-Oct-10 16:00S 53°06' W 070°54'   260 / 221016.2 9.3 -0.0

Dump ship's entire track history